Time;durP1;ratioP1;P1;durP2;ratioP2;P2;SDS_P1;SDS_P2;PMS_P1;PMS_P2;Temp;Humidity;BMP_temperature;BMP_pressure;BME280_temperature;BME280_humidity;BME280_pressure;Samples;Min_cycle;Max_cycle;Signal;HPM_P1;HPM_P2
2022/02/19 00:01:40;;;;;;;111.63;75.20;;;;;;;;;;4972109;28;20030;-65
2022/02/19 00:04:06;;;;;;;111.25;72.63;;;;;;;;;;4976005;28;20030;-64
2022/02/19 00:06:38;;;;;;;105.25;69.72;;;;;;;;;;4987150;28;20076;-64
2022/02/19 00:09:05;;;;;;;112.07;71.68;;;;;;;;;;4988911;28;20468;-65
2022/02/19 00:11:31;;;;;;;119.25;72.68;;;;;;;;;;4991335;28;20034;-64
2022/02/19 00:13:57;;;;;;;112.75;72.82;;;;;;;;;;4989747;28;20114;-64
2022/02/19 00:16:23;;;;;;;112.45;73.85;;;;;;;;;;4989280;28;20508;-64
2022/02/19 00:18:49;;;;;;;115.10;73.85;;;;;;;;;;4989230;28;20049;-65
2022/02/19 00:21:15;;;;;;;116.32;73.40;;;;;;;;;;4989038;28;20061;-64
2022/02/19 00:23:41;;;;;;;123.28;77.32;;;;;;;;;;4989070;28;20157;-64
2022/02/19 00:26:08;;;;;;;119.97;78.47;;;;;;;;;;4990194;28;20448;-65
2022/02/19 00:28:34;;;;;;;113.28;72.55;;;;;;;;;;4990780;28;20109;-66
2022/02/19 00:31:00;;;;;;;113.40;73.22;;;;;;;;;;4989172;28;20050;-65
2022/02/19 00:33:27;;;;;;;118.88;76.32;;;;;;;;;;4988920;28;20053;-65
2022/02/19 00:35:53;;;;;;;116.20;76.47;;;;;;;;;;4988633;28;20076;-65
2022/02/19 00:38:20;;;;;;;118.05;76.30;;;;;;;;;;4991083;28;20031;-65
2022/02/19 00:40:46;;;;;;;117.93;76.53;;;;;;;;;;4984975;28;20034;-65
2022/02/19 00:43:13;;;;;;;113.82;73.32;;;;;;;;;;4989408;28;20065;-65
2022/02/19 00:45:39;;;;;;;115.50;75.28;;;;;;;;;;4988983;28;20517;-64
2022/02/19 00:48:05;;;;;;;124.10;78.25;;;;;;;;;;4990675;28;20038;-64
2022/02/19 00:50:31;;;;;;;127.30;79.80;;;;;;;;;;4988678;28;20426;-65
2022/02/19 00:59:17;;;;;;;123.78;78.68;;;;;;;;;;4986739;28;20061;-65
2022/02/19 01:01:43;;;;;;;120.35;78.30;;;;;;;;;;4989129;28;20499;-65
2022/02/19 01:04:09;;;;;;;122.68;79.15;;;;;;;;;;4989369;28;20033;-65
2022/02/19 01:06:35;;;;;;;124.72;80.13;;;;;;;;;;4989178;28;20507;-65
2022/02/19 01:09:01;;;;;;;117.40;75.00;;;;;;;;;;4981965;28;20053;-65
2022/02/19 01:11:27;;;;;;;129.13;77.78;;;;;;;;;;4986246;28;20368;-64
2022/02/19 01:13:53;;;;;;;131.13;81.18;;;;;;;;;;4988964;28;20895;-64
2022/02/19 01:16:19;;;;;;;130.52;79.40;;;;;;;;;;4989788;28;20065;-64
2022/02/19 01:18:45;;;;;;;124.35;77.75;;;;;;;;;;4989005;28;20475;-65
2022/02/19 01:21:12;;;;;;;118.72;74.68;;;;;;;;;;4987463;28;20387;-65
2022/02/19 01:23:38;;;;;;;128.20;79.80;;;;;;;;;;4988442;28;20139;-65
2022/02/19 01:26:04;;;;;;;120.97;77.25;;;;;;;;;;4989130;28;20071;-65
2022/02/19 01:28:34;;;;;;;126.28;78.05;;;;;;;;;;4989333;28;20031;-64
2022/02/19 01:31:00;;;;;;;122.47;76.78;;;;;;;;;;4987475;28;20034;-65
2022/02/19 01:33:26;;;;;;;130.48;80.13;;;;;;;;;;4989737;28;20461;-64
2022/02/19 01:35:52;;;;;;;135.10;82.15;;;;;;;;;;4987010;28;20036;-65
2022/02/19 01:38:18;;;;;;;124.40;78.43;;;;;;;;;;4989881;28;20514;-65
2022/02/19 01:40:45;;;;;;;131.95;80.63;;;;;;;;;;4989135;28;20037;-64
2022/02/19 01:43:11;;;;;;;127.95;78.45;;;;;;;;;;4989026;28;20099;-65
2022/02/19 01:45:37;;;;;;;125.18;78.78;;;;;;;;;;4986927;28;20029;-64
2022/02/19 01:48:04;;;;;;;133.27;79.85;;;;;;;;;;4986366;28;20034;-65
2022/02/19 01:50:30;;;;;;;125.07;76.72;;;;;;;;;;4990036;28;20035;-65
2022/02/19 01:52:56;;;;;;;126.32;77.75;;;;;;;;;;4986541;28;20038;-65
2022/02/19 01:55:22;;;;;;;131.32;80.13;;;;;;;;;;4987405;28;20026;-65
2022/02/19 01:57:48;;;;;;;130.55;79.47;;;;;;;;;;4983291;28;20050;-65
2022/02/19 02:00:15;;;;;;;129.55;79.45;;;;;;;;;;4993152;28;20051;-65
2022/02/19 02:02:42;;;;;;;130.23;79.90;;;;;;;;;;4983043;28;20029;-65
2022/02/19 02:05:08;;;;;;;135.13;80.63;;;;;;;;;;4982560;28;20023;-65
2022/02/19 02:07:35;;;;;;;136.70;82.05;;;;;;;;;;4991292;28;20040;-65
2022/02/19 02:10:01;;;;;;;132.10;79.15;;;;;;;;;;4993116;28;20385;-65
2022/02/19 02:12:27;;;;;;;139.35;83.05;;;;;;;;;;4992433;28;20026;-64
2022/02/19 02:14:53;;;;;;;131.15;81.50;;;;;;;;;;4982470;28;20399;-65
2022/02/19 02:17:19;;;;;;;129.15;80.82;;;;;;;;;;4983961;28;20366;-66
2022/02/19 02:19:45;;;;;;;130.38;79.07;;;;;;;;;;4989104;28;20056;-65
2022/02/19 02:22:14;;;;;;;135.95;81.45;;;;;;;;;;4988220;28;20378;-65
2022/02/19 02:24:40;;;;;;;140.80;83.82;;;;;;;;;;4986689;28;20026;-65
2022/02/19 02:27:07;;;;;;;134.30;80.75;;;;;;;;;;4991248;28;20089;-64
2022/02/19 02:29:44;;;;;;;132.80;79.28;;;;;;;;;;4990950;28;20026;-65
2022/02/19 02:32:10;;;;;;;139.55;82.90;;;;;;;;;;4984942;28;20027;-65
2022/02/19 02:34:47;;;;;;;141.27;82.13;;;;;;;;;;4988823;28;20037;-65
2022/02/19 02:37:13;;;;;;;127.63;77.03;;;;;;;;;;4987904;28;20023;-65
2022/02/19 02:39:40;;;;;;;126.68;75.00;;;;;;;;;;4975673;28;20069;-65
2022/02/19 02:42:07;;;;;;;123.03;75.38;;;;;;;;;;4988857;28;20169;-65
2022/02/19 02:44:38;;;;;;;129.15;77.45;;;;;;;;;;4989876;28;20029;-65
2022/02/19 02:47:04;;;;;;;128.68;76.82;;;;;;;;;;4982021;28;20034;-65
2022/02/19 02:49:30;;;;;;;133.77;78.97;;;;;;;;;;4986855;28;20022;-65
2022/02/19 02:51:56;;;;;;;130.75;76.05;;;;;;;;;;4979606;28;20573;-66
2022/02/19 02:54:22;;;;;;;122.63;76.28;;;;;;;;;;4980374;28;20121;-66
2022/02/19 02:56:48;;;;;;;129.10;78.00;;;;;;;;;;4991448;28;20109;-65
2022/02/19 02:59:14;;;;;;;131.25;77.75;;;;;;;;;;4988878;28;20061;-66
2022/02/19 03:01:40;;;;;;;126.25;75.63;;;;;;;;;;4989644;28;20131;-65
2022/02/19 03:04:06;;;;;;;128.18;77.00;;;;;;;;;;4988142;28;20431;-65
2022/02/19 03:06:32;;;;;;;128.43;76.55;;;;;;;;;;4989574;28;20407;-65
2022/02/19 03:08:58;;;;;;;133.48;79.38;;;;;;;;;;4989797;28;20041;-65
2022/02/19 03:11:24;;;;;;;124.03;77.03;;;;;;;;;;4989049;28;20385;-65
2022/02/19 03:13:50;;;;;;;130.48;78.32;;;;;;;;;;4984302;28;20418;-65
2022/02/19 03:16:16;;;;;;;126.88;77.60;;;;;;;;;;4991279;28;20052;-65
2022/02/19 03:18:42;;;;;;;129.50;77.13;;;;;;;;;;4987848;28;20030;-65
2022/02/19 03:21:14;;;;;;;116.97;74.15;;;;;;;;;;4977562;28;20476;-65
2022/02/19 03:23:40;;;;;;;125.00;75.18;;;;;;;;;;4988135;28;20030;-66
2022/02/19 03:26:07;;;;;;;124.70;79.10;;;;;;;;;;4991897;28;20076;-65
2022/02/19 03:28:34;;;;;;;128.13;79.18;;;;;;;;;;4983243;28;20022;-65
2022/02/19 03:31:00;;;;;;;128.07;79.63;;;;;;;;;;4990813;28;20038;-65
2022/02/19 03:33:26;;;;;;;124.15;78.57;;;;;;;;;;4989640;28;20117;-65
2022/02/19 03:35:54;;;;;;;128.35;80.45;;;;;;;;;;4983479;28;20033;-66
2022/02/19 03:38:21;;;;;;;125.90;77.45;;;;;;;;;;4983687;28;20023;-65
2022/02/19 03:40:47;;;;;;;127.95;79.25;;;;;;;;;;4986986;28;20038;-65
2022/02/19 03:43:13;;;;;;;129.02;78.70;;;;;;;;;;4983474;28;20472;-65
2022/02/19 03:45:43;;;;;;;127.75;77.65;;;;;;;;;;4987587;28;20042;-65
2022/02/19 03:48:09;;;;;;;119.13;76.50;;;;;;;;;;4984652;28;20143;-65
2022/02/19 03:50:35;;;;;;;133.52;79.07;;;;;;;;;;4991016;28;20487;-65
2022/02/19 03:53:01;;;;;;;130.45;80.45;;;;;;;;;;4989959;28;20026;-65
2022/02/19 03:55:28;;;;;;;118.97;74.00;;;;;;;;;;4990408;28;20041;-65
2022/02/19 03:57:54;;;;;;;122.63;77.28;;;;;;;;;;4989463;28;20026;-65
2022/02/19 04:00:20;;;;;;;124.13;76.05;;;;;;;;;;4983747;28;20070;-65
2022/02/19 04:02:46;;;;;;;124.60;75.88;;;;;;;;;;4984130;28;20030;-65
2022/02/19 04:05:12;;;;;;;130.60;79.55;;;;;;;;;;4991039;28;20026;-65
2022/02/19 04:07:38;;;;;;;126.97;77.90;;;;;;;;;;4986004;28;20062;-65
2022/02/19 04:10:05;;;;;;;141.75;81.57;;;;;;;;;;4988086;28;20023;-66
2022/02/19 04:12:32;;;;;;;124.97;75.80;;;;;;;;;;4990185;28;20038;-65
2022/02/19 04:14:58;;;;;;;127.50;76.00;;;;;;;;;;4985733;28;20018;-65
2022/02/19 04:17:24;;;;;;;128.25;76.10;;;;;;;;;;4985579;28;20109;-65
2022/02/19 04:19:52;;;;;;;129.43;77.32;;;;;;;;;;4987970;28;20035;-65
2022/02/19 04:22:18;;;;;;;127.57;75.10;;;;;;;;;;4988697;28;20027;-65
2022/02/19 04:24:45;;;;;;;127.53;77.00;;;;;;;;;;4990495;28;20498;-65
2022/02/19 04:27:11;;;;;;;121.03;75.30;;;;;;;;;;4990674;28;20045;-65
2022/02/19 04:29:37;;;;;;;118.13;74.28;;;;;;;;;;4989313;28;20037;-65
2022/02/19 04:32:03;;;;;;;126.72;77.40;;;;;;;;;;4989928;28;20026;-64
2022/02/19 04:34:29;;;;;;;116.63;72.50;;;;;;;;;;4984259;28;20030;-65
2022/02/19 04:36:55;;;;;;;124.15;73.30;;;;;;;;;;4986766;28;20153;-65
2022/02/19 04:39:21;;;;;;;114.72;70.38;;;;;;;;;;4986260;28;20029;-65
2022/02/19 04:41:48;;;;;;;114.45;70.32;;;;;;;;;;4989114;28;20464;-65
2022/02/19 04:44:14;;;;;;;117.57;70.05;;;;;;;;;;4985020;28;20030;-66
2022/02/19 04:46:40;;;;;;;121.18;71.97;;;;;;;;;;4989328;28;20035;-65
2022/02/19 04:49:06;;;;;;;116.25;69.05;;;;;;;;;;4988385;28;20026;-65
2022/02/19 04:51:32;;;;;;;124.22;73.38;;;;;;;;;;4990200;28;20061;-65
2022/02/19 04:53:58;;;;;;;120.03;73.85;;;;;;;;;;4989555;28;20061;-65
2022/02/19 04:56:24;;;;;;;118.65;70.47;;;;;;;;;;4989031;28;20027;-65
2022/02/19 04:58:50;;;;;;;121.03;72.65;;;;;;;;;;4988069;28;20053;-65
2022/02/19 05:01:17;;;;;;;120.78;72.85;;;;;;;;;;4985358;28;20066;-65
2022/02/19 05:03:43;;;;;;;114.13;69.90;;;;;;;;;;4987571;28;20026;-65
2022/02/19 05:06:13;;;;;;;123.47;73.22;;;;;;;;;;4989498;28;20045;-65
2022/02/19 05:08:39;;;;;;;120.30;71.07;;;;;;;;;;4981487;28;20034;-65
2022/02/19 05:11:05;;;;;;;118.65;72.35;;;;;;;;;;4985012;28;20079;-65
2022/02/19 05:13:31;;;;;;;114.20;71.28;;;;;;;;;;4982104;28;20039;-65
2022/02/19 05:16:07;;;;;;;117.68;68.78;;;;;;;;;;4990616;28;20030;-65
2022/02/19 05:18:33;;;;;;;110.90;68.95;;;;;;;;;;4985899;28;20035;-65
2022/02/19 05:20:59;;;;;;;118.40;69.70;;;;;;;;;;4990048;28;20091;-65
2022/02/19 05:23:25;;;;;;;113.72;68.50;;;;;;;;;;4983132;28;20035;-65
2022/02/19 05:25:51;;;;;;;108.40;67.10;;;;;;;;;;4988338;28;20155;-65
2022/02/19 05:28:17;;;;;;;115.93;69.35;;;;;;;;;;4986799;28;20030;-65
2022/02/19 05:30:43;;;;;;;114.60;70.55;;;;;;;;;;4991695;28;20105;-65
2022/02/19 05:33:09;;;;;;;121.78;71.03;;;;;;;;;;4987084;28;20035;-65
2022/02/19 05:35:35;;;;;;;119.03;68.78;;;;;;;;;;4991115;28;20022;-65
2022/02/19 05:38:01;;;;;;;116.82;69.35;;;;;;;;;;4990673;28;20028;-65
2022/02/19 05:40:27;;;;;;;110.50;66.78;;;;;;;;;;4991938;28;20076;-65
2022/02/19 05:42:53;;;;;;;113.47;67.38;;;;;;;;;;4991802;28;20034;-65
2022/02/19 05:45:19;;;;;;;115.35;66.35;;;;;;;;;;4993186;28;20405;-65
2022/02/19 05:47:46;;;;;;;110.60;66.32;;;;;;;;;;4991733;28;20066;-65
2022/02/19 05:50:12;;;;;;;109.70;65.40;;;;;;;;;;4992225;28;20093;-64
2022/02/19 05:52:39;;;;;;;115.32;66.55;;;;;;;;;;4991586;28;20811;-65
2022/02/19 05:55:06;;;;;;;111.40;65.00;;;;;;;;;;4985541;28;20058;-64
2022/02/19 05:57:33;;;;;;;116.95;65.55;;;;;;;;;;4985077;28;20034;-65
2022/02/19 05:59:59;;;;;;;107.63;66.00;;;;;;;;;;4991815;28;20089;-65
2022/02/19 06:02:26;;;;;;;109.30;64.30;;;;;;;;;;4990109;28;20123;-65
2022/02/19 06:05:01;;;;;;;113.38;65.20;;;;;;;;;;4986271;28;20054;-65
2022/02/19 06:07:28;;;;;;;111.55;65.68;;;;;;;;;;4979555;28;20038;-65
2022/02/19 06:09:55;;;;;;;114.68;67.18;;;;;;;;;;4990507;28;20087;-64
2022/02/19 06:12:21;;;;;;;111.15;66.50;;;;;;;;;;4984985;28;20034;-65
2022/02/19 06:14:48;;;;;;;107.15;65.40;;;;;;;;;;4988524;28;20369;-64
2022/02/19 06:17:15;;;;;;;106.90;64.97;;;;;;;;;;4988001;28;20037;-65
2022/02/19 06:19:41;;;;;;;103.50;63.70;;;;;;;;;;4973226;28;20404;-65
2022/02/19 06:22:09;;;;;;;112.70;65.75;;;;;;;;;;4986361;28;20056;-65
2022/02/19 06:25:03;;;;;;;111.10;65.18;;;;;;;;;;4991257;28;20034;-65
2022/02/19 06:27:30;;;;;;;105.07;63.78;;;;;;;;;;4995192;28;20061;-65
2022/02/19 06:29:58;;;;;;;99.22;60.25;;;;;;;;;;5004008;28;20075;-65
2022/02/19 06:32:25;;;;;;;103.63;63.35;;;;;;;;;;4987420;28;20022;-65
2022/02/19 06:34:51;;;;;;;104.63;62.55;;;;;;;;;;4989784;28;20054;-65
2022/02/19 06:37:18;;;;;;;106.13;63.30;;;;;;;;;;4990981;28;20451;-65
2022/02/19 06:39:45;;;;;;;110.78;67.80;;;;;;;;;;4980909;28;20053;-64
2022/02/19 06:42:12;;;;;;;107.53;64.88;;;;;;;;;;4990510;28;20079;-65
2022/02/19 06:44:38;;;;;;;110.05;66.57;;;;;;;;;;4988128;28;20034;-65
2022/02/19 06:47:05;;;;;;;99.32;62.55;;;;;;;;;;4992035;28;20041;-64
2022/02/19 06:49:31;;;;;;;107.85;62.45;;;;;;;;;;4990797;28;20076;-65
2022/02/19 06:51:57;;;;;;;106.05;65.20;;;;;;;;;;4983040;28;20513;-65
2022/02/19 06:54:24;;;;;;;106.05;63.53;;;;;;;;;;4989490;28;20026;-64
2022/02/19 06:56:52;;;;;;;111.53;66.72;;;;;;;;;;4992490;28;20039;-65
2022/02/19 06:59:18;;;;;;;107.50;65.88;;;;;;;;;;4990730;28;20042;-64
2022/02/19 07:01:45;;;;;;;110.60;66.97;;;;;;;;;;4988509;28;20506;-65
2022/02/19 07:04:15;;;;;;;105.72;65.32;;;;;;;;;;4990458;28;20053;-65
2022/02/19 07:06:41;;;;;;;118.78;68.00;;;;;;;;;;4990907;28;20041;-64
2022/02/19 07:09:07;;;;;;;111.07;65.53;;;;;;;;;;4991520;28;20091;-65
2022/02/19 07:11:33;;;;;;;108.13;67.18;;;;;;;;;;4990592;28;20022;-65
2022/02/19 07:14:00;;;;;;;101.18;63.97;;;;;;;;;;4991633;28;20023;-65
2022/02/19 07:16:26;;;;;;;108.82;65.32;;;;;;;;;;4981581;28;20415;-65
2022/02/19 07:18:52;;;;;;;111.45;64.38;;;;;;;;;;4990504;28;20027;-64
2022/02/19 07:21:18;;;;;;;103.68;62.83;;;;;;;;;;4990359;28;20034;-64
2022/02/19 07:23:44;;;;;;;107.35;65.03;;;;;;;;;;4990666;28;20027;-64
2022/02/19 07:26:10;;;;;;;112.15;64.57;;;;;;;;;;4985269;28;20038;-65
2022/02/19 07:28:37;;;;;;;106.45;62.92;;;;;;;;;;4991051;28;20083;-64
2022/02/19 07:31:03;;;;;;;110.50;65.68;;;;;;;;;;4988490;28;20033;-64
2022/02/19 07:33:29;;;;;;;105.50;62.55;;;;;;;;;;4991158;28;20034;-65
2022/02/19 07:35:56;;;;;;;113.03;66.25;;;;;;;;;;4989998;28;20030;-64
2022/02/19 07:38:22;;;;;;;104.18;63.03;;;;;;;;;;4981093;28;20027;-64
2022/02/19 07:46:56;;;;;;;106.78;63.33;;;;;;;;;;4983503;28;20057;-64
2022/02/19 08:00:21;;;;;;;100.90;63.20;;;;;;;;;;4990524;28;19924;-64
2022/02/19 08:02:48;;;;;;;104.43;62.85;;;;;;;;;;4991586;28;20030;-64
2022/02/19 08:05:14;;;;;;;105.65;63.92;;;;;;;;;;4990231;28;20031;-64
2022/02/19 08:07:40;;;;;;;111.30;64.47;;;;;;;;;;4989377;28;20533;-64
2022/02/19 08:10:07;;;;;;;109.70;65.28;;;;;;;;;;4985203;28;20030;-64
2022/02/19 08:12:34;;;;;;;109.82;64.75;;;;;;;;;;4991327;28;20381;-64
2022/02/19 08:15:01;;;;;;;104.65;65.15;;;;;;;;;;4981811;28;20030;-64
2022/02/19 08:17:29;;;;;;;104.07;61.67;;;;;;;;;;4989312;28;20480;-64
2022/02/19 08:19:57;;;;;;;115.78;65.93;;;;;;;;;;4989160;28;20125;-65
2022/02/19 08:22:23;;;;;;;116.32;68.10;;;;;;;;;;4991106;28;20037;-65
2022/02/19 08:24:50;;;;;;;110.93;66.60;;;;;;;;;;4983593;28;20057;-64
2022/02/19 08:27:17;;;;;;;108.32;67.15;;;;;;;;;;4973375;28;20030;-64
2022/02/19 08:29:45;;;;;;;115.78;67.60;;;;;;;;;;4983593;28;20395;-64
2022/02/19 08:32:11;;;;;;;117.20;67.38;;;;;;;;;;4987221;28;20038;-64
2022/02/19 08:34:37;;;;;;;117.13;66.75;;;;;;;;;;4971182;28;20030;-63
2022/02/19 08:37:04;;;;;;;113.75;67.18;;;;;;;;;;4988463;28;20060;-63
2022/02/19 08:39:31;;;;;;;114.82;66.22;;;;;;;;;;4988918;28;20045;-72
2022/02/19 08:41:57;;;;;;;118.78;66.65;;;;;;;;;;4980547;28;20034;-69
2022/02/19 08:44:28;;;;;;;116.88;69.05;;;;;;;;;;4977850;28;20479;-73
2022/02/19 08:46:55;;;;;;;119.35;69.63;;;;;;;;;;4987021;28;20041;-67
2022/02/19 08:49:21;;;;;;;116.80;69.68;;;;;;;;;;4984592;28;20029;-76
2022/02/19 08:51:48;;;;;;;118.55;69.78;;;;;;;;;;4977997;28;20043;-75
2022/02/19 08:54:14;;;;;;;129.38;71.55;;;;;;;;;;4987457;28;20426;-68
2022/02/19 08:56:44;;;;;;;121.43;72.45;;;;;;;;;;4986383;28;20031;-65
2022/02/19 08:59:11;;;;;;;120.03;69.32;;;;;;;;;;4977455;28;20042;-54
2022/02/19 09:01:41;;;;;;;125.40;70.53;;;;;;;;;;4980177;28;20035;-50
2022/02/19 09:04:09;;;;;;;116.78;70.95;;;;;;;;;;4985652;28;20027;-51
2022/02/19 09:06:36;;;;;;;132.05;75.53;;;;;;;;;;4992653;28;20069;-53
2022/02/19 09:09:05;;;;;;;118.82;71.05;;;;;;;;;;4989772;28;20471;-52
2022/02/19 09:11:31;;;;;;;126.88;72.68;;;;;;;;;;4990656;28;20057;-54
2022/02/19 09:13:58;;;;;;;122.30;70.47;;;;;;;;;;4990295;28;20035;-51
2022/02/19 09:16:34;;;;;;;121.47;71.93;;;;;;;;;;4991329;28;20026;-52
2022/02/19 09:19:00;;;;;;;117.68;69.18;;;;;;;;;;4989870;28;20547;-52
2022/02/19 09:21:28;;;;;;;120.38;72.10;;;;;;;;;;4980332;28;20077;-53
2022/02/19 09:23:54;;;;;;;122.10;71.97;;;;;;;;;;4983328;28;20032;-51
2022/02/19 09:26:21;;;;;;;128.45;73.13;;;;;;;;;;4991559;28;20103;-49
2022/02/19 09:28:47;;;;;;;132.88;73.60;;;;;;;;;;4985004;28;20060;-67
2022/02/19 09:31:14;;;;;;;135.40;74.57;;;;;;;;;;4984249;28;20455;-61
2022/02/19 09:33:40;;;;;;;130.95;74.13;;;;;;;;;;4985482;28;20073;-66
2022/02/19 09:36:07;;;;;;;123.43;69.93;;;;;;;;;;4982575;28;20054;-63
2022/02/19 09:38:33;;;;;;;125.05;72.32;;;;;;;;;;4989578;28;20117;-62
2022/02/19 09:41:01;;;;;;;121.38;70.55;;;;;;;;;;4989206;28;20507;-64
2022/02/19 09:43:28;;;;;;;114.75;69.35;;;;;;;;;;4974996;28;20019;-62
2022/02/19 09:45:54;;;;;;;128.13;73.97;;;;;;;;;;4986475;28;20035;-67
2022/02/19 09:48:22;;;;;;;127.63;71.38;;;;;;;;;;4992102;28;20125;-67
2022/02/19 09:51:19;;;;;;;120.63;71.55;;;;;;;;;;4992712;28;20069;-68
2022/02/19 09:54:10;;;;;;;126.35;72.07;;;;;;;;;;4993354;28;20141;-68
2022/02/19 09:56:38;;;;;;;116.57;71.18;;;;;;;;;;4992660;28;20066;-68
2022/02/19 09:59:12;;;;;;;125.05;72.80;;;;;;;;;;4992048;28;20072;-68
2022/02/19 10:01:42;;;;;;;132.73;77.55;;;;;;;;;;4974457;28;20132;-68
2022/02/19 10:04:11;;;;;;;120.03;71.65;;;;;;;;;;4972039;28;20396;-68
2022/02/19 10:06:38;;;;;;;127.68;74.90;;;;;;;;;;4990998;28;20054;-68
2022/02/19 10:09:13;;;;;;;127.75;73.95;;;;;;;;;;4993193;28;20110;-68
2022/02/19 10:11:39;;;;;;;130.95;75.32;;;;;;;;;;4992141;28;20030;-68
2022/02/19 10:14:19;;;;;;;131.15;75.53;;;;;;;;;;4991818;28;20070;-68
2022/02/19 10:17:02;;;;;;;125.68;73.28;;;;;;;;;;4991137;28;20027;-68
2022/02/19 10:19:28;;;;;;;126.57;75.35;;;;;;;;;;4983120;28;20041;-68
2022/02/19 10:22:10;;;;;;;126.75;74.15;;;;;;;;;;4977828;28;20023;-68
2022/02/19 10:24:37;;;;;;;121.93;71.20;;;;;;;;;;4978237;28;20027;-68
2022/02/19 10:27:03;;;;;;;127.95;75.40;;;;;;;;;;4973353;28;20041;-68
2022/02/19 10:29:32;;;;;;;124.63;73.80;;;;;;;;;;4973239;28;20045;-68
2022/02/19 10:31:58;;;;;;;121.68;74.22;;;;;;;;;;4973588;28;20034;-68
2022/02/19 10:34:24;;;;;;;117.05;72.38;;;;;;;;;;4977903;28;20042;-68
2022/02/19 10:36:54;;;;;;;129.00;74.32;;;;;;;;;;4973360;28;20043;-68
2022/02/19 10:39:27;;;;;;;128.20;74.45;;;;;;;;;;4972584;28;20023;-68
2022/02/19 10:41:54;;;;;;;118.93;69.85;;;;;;;;;;4984535;28;20510;-68
2022/02/19 10:44:31;;;;;;;117.35;72.38;;;;;;;;;;4977168;28;20037;-68
2022/02/19 10:46:58;;;;;;;116.60;69.80;;;;;;;;;;4992209;28;20050;-68
2022/02/19 10:49:25;;;;;;;118.47;72.43;;;;;;;;;;4992642;28;20026;-69
2022/02/19 10:51:51;;;;;;;113.45;68.82;;;;;;;;;;4973574;28;20057;-69
2022/02/19 10:54:22;;;;;;;118.68;70.10;;;;;;;;;;4975107;28;20026;-68
2022/02/19 10:56:49;;;;;;;113.13;69.55;;;;;;;;;;4990023;28;20034;-68
2022/02/19 10:59:16;;;;;;;110.63;67.43;;;;;;;;;;4991822;28;20080;-68
2022/02/19 11:01:51;;;;;;;106.93;66.25;;;;;;;;;;4974428;28;20046;-69
2022/02/19 11:07:27;;;;;;;109.10;68.40;;;;;;;;;;4984955;28;20457;-69
2022/02/19 11:09:54;;;;;;;105.15;65.28;;;;;;;;;;4990252;28;20027;-69
2022/02/19 11:12:21;;;;;;;110.75;65.07;;;;;;;;;;4984208;28;20117;-69
2022/02/19 11:14:48;;;;;;;109.72;66.47;;;;;;;;;;4979177;28;20142;-69
2022/02/19 11:17:15;;;;;;;102.88;62.88;;;;;;;;;;4989871;28;20026;-68
2022/02/19 11:20:03;;;;;;;95.82;60.08;;;;;;;;;;4988509;28;20023;-68
2022/02/19 11:22:34;;;;;;;94.10;57.88;;;;;;;;;;4983984;28;20042;-68
2022/02/19 11:25:01;;;;;;;104.30;65.57;;;;;;;;;;4981328;28;20080;-68
2022/02/19 11:27:28;;;;;;;96.80;60.30;;;;;;;;;;4970677;28;20038;-67
2022/02/19 11:29:55;;;;;;;96.53;58.47;;;;;;;;;;4975397;28;20022;-68
2022/02/19 11:32:22;;;;;;;93.72;56.45;;;;;;;;;;4990687;28;20034;-67
2022/02/19 11:34:49;;;;;;;92.00;56.42;;;;;;;;;;4990149;28;20030;-68
2022/02/19 11:37:17;;;;;;;88.40;56.28;;;;;;;;;;4989895;28;20515;-68
2022/02/19 11:40:02;;;;;;;92.80;58.55;;;;;;;;;;4980611;28;20026;-67
2022/02/19 11:43:00;;;;;;;95.90;61.53;;;;;;;;;;4971334;28;20030;-67
2022/02/19 11:45:28;;;;;;;96.13;58.22;;;;;;;;;;4974337;28;20146;-68
2022/02/19 11:48:14;;;;;;;91.65;55.30;;;;;;;;;;4976130;28;20556;-67
2022/02/19 11:50:43;;;;;;;92.18;56.50;;;;;;;;;;4981043;28;20105;-67
2022/02/19 11:53:09;;;;;;;95.32;59.10;;;;;;;;;;4980792;28;20067;-68
2022/02/19 11:55:36;;;;;;;94.72;58.97;;;;;;;;;;4988286;28;20034;-67
2022/02/19 11:58:02;;;;;;;93.82;59.50;;;;;;;;;;4988423;28;20026;-67
2022/02/19 12:00:47;;;;;;;89.47;54.55;;;;;;;;;;4932119;28;1705626;-67
2022/02/19 12:03:18;;;;;;;91.82;56.05;;;;;;;;;;4975005;28;20563;-67
2022/02/19 12:06:03;;;;;;;96.55;60.38;;;;;;;;;;4986854;28;20026;-67
2022/02/19 12:08:52;;;;;;;89.20;55.22;;;;;;;;;;4988103;28;20031;-67
2022/02/19 12:11:25;;;;;;;96.47;57.58;;;;;;;;;;4985087;28;20015;-67
2022/02/19 12:13:52;;;;;;;91.50;56.10;;;;;;;;;;4971901;28;20054;-67
2022/02/19 12:16:39;;;;;;;89.57;56.53;;;;;;;;;;4982074;28;20030;-67
2022/02/19 12:19:10;;;;;;;92.60;58.78;;;;;;;;;;4988872;28;20022;-67
2022/02/19 12:21:39;;;;;;;91.25;57.85;;;;;;;;;;4988742;28;20034;-67
2022/02/19 12:24:15;;;;;;;94.75;59.17;;;;;;;;;;4987916;28;20045;-67
2022/02/19 12:26:57;;;;;;;94.28;60.05;;;;;;;;;;4990463;28;20458;-67
2022/02/19 12:29:25;;;;;;;98.15;62.03;;;;;;;;;;4980195;28;20460;-67
2022/02/19 12:32:07;;;;;;;99.82;60.42;;;;;;;;;;4980151;28;20117;-68
2022/02/19 12:34:34;;;;;;;98.00;61.33;;;;;;;;;;4970645;28;20069;-67
2022/02/19 12:37:02;;;;;;;95.45;60.58;;;;;;;;;;4971592;28;20492;-67
2022/02/19 12:39:28;;;;;;;97.13;58.90;;;;;;;;;;4983692;28;20022;-68
2022/02/19 12:41:55;;;;;;;93.53;56.92;;;;;;;;;;4969890;28;20519;-67
2022/02/19 12:44:22;;;;;;;94.97;60.78;;;;;;;;;;4978936;28;20027;-67
2022/02/19 12:46:49;;;;;;;95.30;61.13;;;;;;;;;;4990414;28;20555;-67
2022/02/19 12:49:16;;;;;;;94.28;58.13;;;;;;;;;;4987177;28;20023;-67
2022/02/19 12:51:43;;;;;;;85.47;54.42;;;;;;;;;;4987673;28;20022;-68
2022/02/19 12:54:09;;;;;;;89.40;57.08;;;;;;;;;;4987551;28;20030;-68
2022/02/19 12:56:39;;;;;;;99.85;59.00;;;;;;;;;;4990059;28;20037;-68
2022/02/19 12:59:06;;;;;;;90.40;57.63;;;;;;;;;;4972770;28;20054;-68
2022/02/19 13:01:32;;;;;;;96.72;58.90;;;;;;;;;;4987397;28;20091;-67
2022/02/19 13:03:58;;;;;;;83.18;52.78;;;;;;;;;;4988167;28;20106;-67
2022/02/19 13:06:25;;;;;;;85.10;54.08;;;;;;;;;;4989331;28;20027;-67
2022/02/19 13:09:08;;;;;;;86.43;54.08;;;;;;;;;;4986651;28;20095;-67
2022/02/19 13:14:56;;;;;;;81.40;51.40;;;;;;;;;;4985306;28;20096;-68
2022/02/19 13:17:22;;;;;;;89.97;57.70;;;;;;;;;;4987724;28;20384;-68
2022/02/19 13:19:48;;;;;;;86.32;55.13;;;;;;;;;;4973476;28;20042;-68
2022/02/19 13:22:14;;;;;;;89.32;56.17;;;;;;;;;;4986074;28;20026;-68
2022/02/19 13:24:41;;;;;;;85.88;56.00;;;;;;;;;;4988162;28;20052;-68
2022/02/19 13:27:18;;;;;;;88.25;55.08;;;;;;;;;;4988759;28;20113;-67
2022/02/19 13:30:05;;;;;;;84.30;52.67;;;;;;;;;;4984147;28;20450;-67
2022/02/19 13:32:35;;;;;;;80.45;53.20;;;;;;;;;;4987307;28;20426;-67
2022/02/19 13:35:04;;;;;;;80.30;52.63;;;;;;;;;;4987991;28;20104;-68
2022/02/19 13:37:31;;;;;;;87.88;56.17;;;;;;;;;;4989887;28;20065;-68
2022/02/19 13:40:10;;;;;;;85.65;52.70;;;;;;;;;;4988230;28;20473;-68
2022/02/19 13:42:37;;;;;;;88.88;55.22;;;;;;;;;;4989971;28;20041;-68
2022/02/19 13:45:04;;;;;;;88.88;55.25;;;;;;;;;;4985677;28;20069;-67
2022/02/19 13:47:31;;;;;;;87.45;56.05;;;;;;;;;;4989267;28;20068;-68
2022/02/19 13:49:57;;;;;;;88.18;57.90;;;;;;;;;;4987661;28;20097;-68
2022/02/19 13:52:27;;;;;;;83.75;54.80;;;;;;;;;;4989457;28;20035;-68
2022/02/19 13:54:54;;;;;;;90.53;53.38;;;;;;;;;;4977622;28;20034;-67
2022/02/19 13:57:21;;;;;;;81.30;54.47;;;;;;;;;;4992160;28;20043;-67
2022/02/19 14:00:00;;;;;;;83.80;53.08;;;;;;;;;;4992130;28;20442;-68
2022/02/19 14:02:26;;;;;;;84.05;53.60;;;;;;;;;;4992671;28;20034;-68
2022/02/19 14:04:59;;;;;;;88.43;55.38;;;;;;;;;;4992614;28;20018;-67
2022/02/19 14:07:25;;;;;;;90.03;57.15;;;;;;;;;;4991436;28;20091;-68
2022/02/19 14:10:08;;;;;;;91.97;58.58;;;;;;;;;;4992345;28;20027;-68
2022/02/19 14:12:38;;;;;;;90.93;59.28;;;;;;;;;;4973428;28;20058;-68
2022/02/19 14:15:05;;;;;;;95.70;59.00;;;;;;;;;;4986144;28;20022;-67
2022/02/19 14:17:40;;;;;;;92.72;56.53;;;;;;;;;;4991335;28;20030;-68
2022/02/19 14:20:09;;;;;;;92.18;56.88;;;;;;;;;;4990097;28;20476;-68
2022/02/19 14:22:39;;;;;;;94.03;57.63;;;;;;;;;;4992087;28;20026;-68
2022/02/19 14:25:06;;;;;;;100.78;61.55;;;;;;;;;;4991863;28;20030;-68
2022/02/19 14:27:50;;;;;;;93.72;56.92;;;;;;;;;;4990332;28;20045;-68
2022/02/19 14:30:17;;;;;;;98.55;58.20;;;;;;;;;;4973578;28;20113;-67
2022/02/19 14:32:43;;;;;;;95.88;58.13;;;;;;;;;;4980751;28;20110;-68
2022/02/19 14:35:10;;;;;;;97.90;59.40;;;;;;;;;;4991237;28;20038;-68
2022/02/19 14:37:42;;;;;;;90.68;58.28;;;;;;;;;;4992017;28;20026;-67
2022/02/19 14:40:08;;;;;;;96.18;58.35;;;;;;;;;;4987313;28;20369;-68
2022/02/19 14:42:34;;;;;;;93.40;56.55;;;;;;;;;;4979502;28;20030;-67